Houn Maru — JG5489 — position and weather

sailwx.info

Track history (hours):
 
Tides and Currents Weather Stations Pressure Air Temp Water Temp Dewpoint Dewpoint Depression Visibility Wind Speed Wind Dir Waves Ship Positions

Houn Maru

Last reported at 2015-Jul-29 06:25 UTC. Time now 2015-Jul-30 18:11 UTC.
Position N 34°35' E 135°27'.

Length 91 m; draft 4.3 m.

Type: Tanker. MMSI: 431101172.

Date/timePositionNaut miles runAvg speedWind from/ knotsBaromVisibWave heightAir tempDewpointWater temp
2015-Jul-29 06:25N 34°35' E 135°27'4 5.1
2015-Jul-29 05:34N 34°36' E 135°22'1212.2
2015-Jul-29 04:33N 34°27' E 135°12'3 2.7
2015-Jul-29 03:34N 34°25' E 135°14'0 0.0
2015-Jul-29 02:32N 34°25' E 135°14'0 0.0
2015-Jul-29 01:25N 34°25' E 135°14'0 0.0
2015-Jul-29 00:26N 34°25' E 135°14'2 1.1
2015-Jul-28 22:16N 34°23' E 135°13'0 0.1
2015-Jul-28 21:25N 34°23' E 135°13'0 0.0
2015-Jul-28 20:25N 34°23' E 135°13'0 0.0
2015-Jul-28 19:28N 34°23' E 135°13'0 0.0
2015-Jul-28 18:27N 34°23' E 135°13'8 9.4
2015-Jul-28 17:33N 34°30' E 135°07'12 0.4
2015-Jul-27 08:31N 34°35' E 134°53'1111.4
2015-Jul-27 07:33N 34°33' E 135°06'1110.9
2015-Jul-27 06:33N 34°24' E 135°14'1 0.1
2015-Jul-27 01:33N 34°25' E 135°14'2 1.8
2015-Jul-27 00:32N 34°24' E 135°12'0 0.0
2015-Jul-26 23:32N 34°24' E 135°12'0 0.0
2015-Jul-26 22:32N 34°24' E 135°12'0 0.1
2015-Jul-26 21:32N 34°24' E 135°12'0 0.0
2015-Jul-26 20:32N 34°24' E 135°12'0 0.0
2015-Jul-26 19:32N 34°24' E 135°12'0 0.0
2015-Jul-26 18:32N 34°24' E 135°12'0 0.0
2015-Jul-26 17:32N 34°24' E 135°12'0 0.0
2015-Jul-26 16:32N 34°24' E 135°12'0 0.0
2015-Jul-26 15:32N 34°24' E 135°12'0 0.0
2015-Jul-26 14:32N 34°24' E 135°12'0 0.0
2015-Jul-26 13:32N 34°24' E 135°12'3 3.2
2015-Jul-26 12:33N 34°26' E 135°10'1010.3
2015-Jul-26 11:33N 34°35' E 135°04'10 0.3
2015-Jul-25 06:18N 34°35' E 134°52'1013.2
2015-Jul-25 05:33N 34°36' E 135°04'1211.9
2015-Jul-25 04:33N 34°25' E 135°10'3 2.6
2015-Jul-25 03:17N 34°25' E 135°14'0 0.0
2015-Jul-25 00:16N 34°25' E 135°14'2 2.7
2015-Jul-24 23:27N 34°23' E 135°13'0 0.0
2015-Jul-24 22:30N 34°23' E 135°13'0 0.0
2015-Jul-24 21:33N 34°23' E 135°13'0 0.0
2015-Jul-24 20:21N 34°23' E 135°13'0 0.0
2015-Jul-24 18:27N 34°23' E 135°13'0 0.0
2015-Jul-24 17:33N 34°23' E 135°13'0 0.0
2015-Jul-24 16:33N 34°23' E 135°13'0 0.0
2015-Jul-24 15:33N 34°23' E 135°13'4 4.3
2015-Jul-24 14:33N 34°26' E 135°09'1211.6
2015-Jul-24 13:33N 34°36' E 135°02'3 0.1
2015-Jul-23 08:31N 34°37' E 134°58'1010.1
2015-Jul-23 07:33N 34°31' E 135°07'8 1.4
2015-Jul-23 01:33N 34°25' E 135°14'2 0.6
2015-Jul-22 22:33N 34°23' E 135°13'0 0.0
2015-Jul-22 20:33N 34°23' E 135°13'0 0.0
2015-Jul-22 19:33N 34°23' E 135°13'0 0.0
2015-Jul-22 18:33N 34°23' E 135°13'0 0.0
2015-Jul-22 14:21N 34°23' E 135°13'2 2.3
2015-Jul-22 13:33N 34°25' E 135°11'1111.2
2015-Jul-22 12:32N 34°34' E 135°04'9 0.3
2015-Jul-21 06:24N 34°36' E 134°53'910.4
2015-Jul-21 05:33N 34°36' E 135°04'1212.1
2015-Jul-21 04:34N 34°25' E 135°10'4 0.8
2015-Jul-21 00:14N 34°25' E 135°14'2 2.5
2015-Jul-20 23:24N 34°24' E 135°13'0 0.0
2015-Jul-20 21:06N 34°24' E 135°13'0 0.2
2015-Jul-20 20:33N 34°24' E 135°13'0 0.1
2015-Jul-20 19:18N 34°23' E 135°13'0 0.0
2015-Jul-20 18:18N 34°23' E 135°13'0 0.0
2015-Jul-20 13:18N 34°24' E 135°13'3 4.5
2015-Jul-20 12:33N 34°26' E 135°10'1110.7
2015-Jul-20 11:33N 34°35' E 135°03'  
Track history (hours):
 
Tides and Currents Weather Stations Pressure Air Temp Water Temp Dewpoint Dewpoint Depression Visibility Wind Speed Wind Dir Waves Ship Positions

Houn Maru

Last reported at 2015-Jul-29 06:25 UTC. Time now 2015-Jul-30 18:11 UTC.
Position N 34°35' E 135°27'.

Length 91 m; draft 4.3 m.

Type: Tanker. MMSI: 431101172.

Date/timePositionNaut miles runAvg speedWind from/ knotsBaromVisibWave heightAir tempDewpointWater temp
2015-Jul-29 06:25N 34°35' E 135°27'4 5.1
2015-Jul-29 05:34N 34°36' E 135°22'1212.2
2015-Jul-29 04:33N 34°27' E 135°12'3 2.7
2015-Jul-29 03:34N 34°25' E 135°14'0 0.0
2015-Jul-29 02:32N 34°25' E 135°14'0 0.0
2015-Jul-29 01:25N 34°25' E 135°14'0 0.0
2015-Jul-29 00:26N 34°25' E 135°14'2 1.1
2015-Jul-28 22:16N 34°23' E 135°13'0 0.1
2015-Jul-28 21:25N 34°23' E 135°13'0 0.0
2015-Jul-28 20:25N 34°23' E 135°13'0 0.0
2015-Jul-28 19:28N 34°23' E 135°13'0 0.0
2015-Jul-28 18:27N 34°23' E 135°13'8 9.4
2015-Jul-28 17:33N 34°30' E 135°07'12 0.4
2015-Jul-27 08:31N 34°35' E 134°53'1111.4
2015-Jul-27 07:33N 34°33' E 135°06'1110.9
2015-Jul-27 06:33N 34°24' E 135°14'1 0.1
2015-Jul-27 01:33N 34°25' E 135°14'2 1.8
2015-Jul-27 00:32N 34°24' E 135°12'0 0.0
2015-Jul-26 23:32N 34°24' E 135°12'0 0.0
2015-Jul-26 22:32N 34°24' E 135°12'0 0.1
2015-Jul-26 21:32N 34°24' E 135°12'0 0.0
2015-Jul-26 20:32N 34°24' E 135°12'0 0.0
2015-Jul-26 19:32N 34°24' E 135°12'0 0.0
2015-Jul-26 18:32N 34°24' E 135°12'0 0.0
2015-Jul-26 17:32N 34°24' E 135°12'0 0.0
2015-Jul-26 16:32N 34°24' E 135°12'0 0.0
2015-Jul-26 15:32N 34°24' E 135°12'0 0.0
2015-Jul-26 14:32N 34°24' E 135°12'0 0.0
2015-Jul-26 13:32N 34°24' E 135°12'3 3.2
2015-Jul-26 12:33N 34°26' E 135°10'1010.3
2015-Jul-26 11:33N 34°35' E 135°04'10 0.3
2015-Jul-25 06:18N 34°35' E 134°52'1013.2
2015-Jul-25 05:33N 34°36' E 135°04'1211.9
2015-Jul-25 04:33N 34°25' E 135°10'3 2.6
2015-Jul-25 03:17N 34°25' E 135°14'0 0.0
2015-Jul-25 00:16N 34°25' E 135°14'2 2.7
2015-Jul-24 23:27N 34°23' E 135°13'0 0.0
2015-Jul-24 22:30N 34°23' E 135°13'0 0.0
2015-Jul-24 21:33N 34°23' E 135°13'0 0.0
2015-Jul-24 20:21N 34°23' E 135°13'0 0.0
2015-Jul-24 18:27N 34°23' E 135°13'0 0.0
2015-Jul-24 17:33N 34°23' E 135°13'0 0.0
2015-Jul-24 16:33N 34°23' E 135°13'0 0.0
2015-Jul-24 15:33N 34°23' E 135°13'4 4.3
2015-Jul-24 14:33N 34°26' E 135°09'1211.6
2015-Jul-24 13:33N 34°36' E 135°02'3 0.1
2015-Jul-23 08:31N 34°37' E 134°58'1010.1
2015-Jul-23 07:33N 34°31' E 135°07'8 1.4
2015-Jul-23 01:33N 34°25' E 135°14'2 0.6
2015-Jul-22 22:33N 34°23' E 135°13'0 0.0
2015-Jul-22 20:33N 34°23' E 135°13'0 0.0
2015-Jul-22 19:33N 34°23' E 135°13'0 0.0
2015-Jul-22 18:33N 34°23' E 135°13'0 0.0
2015-Jul-22 14:21N 34°23' E 135°13'2 2.3
2015-Jul-22 13:33N 34°25' E 135°11'1111.2
2015-Jul-22 12:32N 34°34' E 135°04'9 0.3
2015-Jul-21 06:24N 34°36' E 134°53'910.4
2015-Jul-21 05:33N 34°36' E 135°04'1212.1
2015-Jul-21 04:34N 34°25' E 135°10'4 0.8
2015-Jul-21 00:14N 34°25' E 135°14'2 2.5
2015-Jul-20 23:24N 34°24' E 135°13'0 0.0
2015-Jul-20 21:06N 34°24' E 135°13'0 0.2
2015-Jul-20 20:33N 34°24' E 135°13'0 0.1
2015-Jul-20 19:18N 34°23' E 135°13'0 0.0
2015-Jul-20 18:18N 34°23' E 135°13'0 0.0
2015-Jul-20 13:18N 34°24' E 135°13'3 4.5
2015-Jul-20 12:33N 34°26' E 135°10'1110.7
2015-Jul-20 11:33N 34°35' E 135°03'  

Dump ship's entire track history